Time,TemperatureF,DewpointF,PressureIn,WindDirection,WindDirectionDegrees,WindSpeedMPH,WindSpeedGustMPH,Humidity,HourlyPrecipIn,Conditions,Clouds,dailyrainin,SoftwareType,DateUTC
2013-05-12 00:01:00,51.1,49.1,29.67,SW,225,4.7,4.7,93,0.00,RA,,0.00,WeatherDisplay:10.37,2013-05-12 04:01:00,
2013-05-12 00:02:00,51.1,49.1,29.67,SW,225,5.8,5.8,93,0.00,RA,,0.00,WeatherDisplay:10.37,2013-05-12 04:02:00,
2013-05-12 00:04:00,51.3,49.3,29.67,SW,225,5.8,5.8,93,0.00,RA,,0.00,WeatherDisplay:10.37,2013-05-12 04:04:00,
2013-05-12 00:09:00,51.3,49.3,29.67,SW,225,5.8,5.8,93,0.00,RA,,0.00,WeatherDisplay:10.37,2013-05-12 04:09:00,
2013-05-12 00:14:00,51.3,49.3,29.67,SW,225,5.8,5.8,93,0.00,BKN,,0.00,WeatherDisplay:10.37,2013-05-12 04:14:00,
2013-05-12 00:19:00,51.3,49.3,29.67,SW,225,4.2,4.2,93,0.00,BKN,,0.00,WeatherDisplay:10.37,2013-05-12 04:19:00,
2013-05-12 00:24:00,51.3,49.3,29.67,SW,225,3.5,3.5,93,0.00,BKN,,0.00,WeatherDisplay:10.37,2013-05-12 04:24:00,
2013-05-12 00:29:00,51.3,49.3,29.67,WSW,248,4.7,4.7,93,0.00,BKN,,0.00,WeatherDisplay:10.37,2013-05-12 04:29:00,
2013-05-12 00:34:00,51.3,49.3,29.67,SW,225,4.6,4.6,93,0.00,BKN,,0.00,WeatherDisplay:10.37,2013-05-12 04:34:00,
2013-05-12 00:39:00,51.1,49.4,29.67,SSW,202,4.6,4.6,94,0.00,BKN,,0.00,WeatherDisplay:10.37,2013-05-12 04:39:00,
2013-05-12 00:44:00,51.1,49.4,29.67,SW,225,5.8,5.8,94,0.00,BKN,,0.00,WeatherDisplay:10.37,2013-05-12 04:44:00,
2013-05-12 00:49:00,51.1,49.4,29.66,SW,225,6.9,6.9,94,0.00,BKN,,0.00,WeatherDisplay:10.37,2013-05-12 04:49:00,
2013-05-12 00:54:00,51.1,49.4,29.66,WSW,248,6.9,6.9,94,0.00,BKN,,0.00,WeatherDisplay:10.37,2013-05-12 04:54:00,
2013-05-12 00:59:00,51.1,49.4,29.66,SW,225,6.9,6.9,94,0.00,BKN,,0.00,WeatherDisplay:10.37,2013-05-12 04:59:00,
2013-05-12 01:04:00,51.1,49.4,29.66,SSW,202,7.8,7.8,94,0.00,OVC,,0.00,WeatherDisplay:10.37,2013-05-12 05:04:00,
2013-05-12 01:09:00,51.1,49.4,29.66,SW,225,8.1,8.1,94,0.00,OVC,,0.00,WeatherDisplay:10.37,2013-05-12 05:09:00,
2013-05-12 01:14:00,51.1,49.4,29.66,SW,225,8.1,8.1,94,0.00,OVC,,0.00,WeatherDisplay:10.37,2013-05-12 05:14:00,
2013-05-12 01:19:00,51.3,49.6,29.66,SW,225,5.8,5.8,94,0.00,OVC,,0.00,WeatherDisplay:10.37,2013-05-12 05:19:00,
2013-05-12 01:24:00,51.3,49.3,29.66,SSW,202,9.2,9.2,93,0.00,OVC,,0.00,WeatherDisplay:10.37,2013-05-12 05:24:00,
2013-05-12 01:29:00,51.3,49.3,29.66,West,270,4.7,4.7,93,0.00,OVC,,0.00,WeatherDisplay:10.37,2013-05-12 05:29:00,
2013-05-12 01:34:00,51.3,49.3,29.66,WSW,248,5.8,5.8,93,0.00,OVC,,0.00,WeatherDisplay:10.37,2013-05-12 05:34:00,
2013-05-12 01:39:00,51.3,49.6,29.66,SW,225,8.1,8.1,94,0.00,OVC,,0.00,WeatherDisplay:10.37,2013-05-12 05:39:00,
2013-05-12 01:44:00,51.1,49.7,29.66,SW,225,6.9,6.9,95,0.00,OVC,,0.00,WeatherDisplay:10.37,2013-05-12 05:44:00,
2013-05-12 01:49:00,51.1,49.7,29.66,WSW,248,10.4,10.4,95,0.00,OVC,,0.00,WeatherDisplay:10.37,2013-05-12 05:49:00,
2013-05-12 01:54:00,51.3,49.6,29.66,SW,225,12.7,12.7,94,0.00,OVC,,0.00,WeatherDisplay:10.37,2013-05-12 05:54:00,
2013-05-12 01:59:00,51.3,49.1,29.66,West,270,16.1,16.7,92,0.00,OVC,,0.00,WeatherDisplay:10.37,2013-05-12 05:59:00,
2013-05-12 02:04:00,50.4,45.1,29.67,WSW,248,19.1,19.1,82,0.00,OVC,,0.00,WeatherDisplay:10.37,2013-05-12 06:04:00,
2013-05-12 02:09:00,50.0,43.4,29.67,WNW,292,18.4,18.4,78,0.00,OVC,,0.00,WeatherDisplay:10.37,2013-05-12 06:09:00,
2013-05-12 02:14:00,49.6,41.3,29.68,West,270,17.1,17.1,73,0.00,OVC,,0.00,WeatherDisplay:10.37,2013-05-12 06:14:00,
2013-05-12 02:19:00,49.5,41.2,29.68,SW,225,13.8,13.8,73,0.00,OVC,,0.00,WeatherDisplay:10.37,2013-05-12 06:19:00,
2013-05-12 02:24:00,49.1,41.5,29.68,West,270,16.1,16.1,75,0.00,OVC,,0.00,WeatherDisplay:10.37,2013-05-12 06:24:00,
2013-05-12 02:29:00,48.6,41.4,29.68,West,270,16.1,16.1,76,0.00,OVC,,0.00,WeatherDisplay:10.37,2013-05-12 06:29:00,
2013-05-12 02:34:00,48.2,41.3,29.68,West,270,13.0,13.0,77,0.00,OVC,,0.00,WeatherDisplay:10.37,2013-05-12 06:34:00,
2013-05-12 02:39:00,48.2,41.7,29.69,West,270,11.5,11.5,78,0.00,OVC,,0.00,WeatherDisplay:10.37,2013-05-12 06:39:00,
2013-05-12 02:44:00,48.0,42.1,29.69,WNW,292,12.7,12.7,80,0.00,OVC,,0.00,WeatherDisplay:10.37,2013-05-12 06:44:00,
2013-05-12 02:49:00,47.7,42.2,29.69,WSW,248,16.1,16.1,81,0.00,OVC,,0.00,WeatherDisplay:10.37,2013-05-12 06:49:00,
2013-05-12 02:54:00,47.7,41.8,29.69,West,270,19.6,19.6,80,0.00,OVC,,0.00,WeatherDisplay:10.37,2013-05-12 06:54:00,
2013-05-12 02:59:00,47.5,42.0,29.69,WSW,248,15.0,15.0,81,0.00,OVC,,0.00,WeatherDisplay:10.37,2013-05-12 06:59:00,
2013-05-12 03:04:00,47.3,42.1,29.69,WSW,248,16.1,16.1,82,0.00,OVC,,0.00,WeatherDisplay:10.37,2013-05-12 07:04:00,
2013-05-12 03:09:00,47.1,42.2,29.69,SW,225,10.4,10.4,83,0.00,OVC,,0.00,WeatherDisplay:10.37,2013-05-12 07:09:00,
2013-05-12 03:14:00,47.1,42.2,29.69,SW,225,9.2,9.2,83,0.00,OVC,,0.00,WeatherDisplay:10.37,2013-05-12 07:14:00,
2013-05-12 03:19:00,47.1,42.2,29.69,SW,225,14.5,14.5,83,0.00,OVC,,0.00,WeatherDisplay:10.37,2013-05-12 07:19:00,
2013-05-12 03:24:00,46.9,42.3,29.69,West,270,16.1,16.1,84,0.00,OVC,,0.00,WeatherDisplay:10.37,2013-05-12 07:24:00,
2013-05-12 03:29:00,46.9,42.3,29.69,WSW,248,16.0,16.0,84,0.00,OVC,,0.00,WeatherDisplay:10.37,2013-05-12 07:29:00,
2013-05-12 03:34:00,46.9,42.3,29.69,West,270,9.2,9.2,84,0.00,OVC,,0.00,WeatherDisplay:10.37,2013-05-12 07:34:00,
2013-05-12 03:39:00,46.8,42.5,29.69,WSW,248,10.4,10.4,85,0.00,OVC,,0.00,WeatherDisplay:10.37,2013-05-12 07:39:00,
2013-05-12 03:44:00,46.8,42.2,29.69,WSW,248,11.9,11.9,84,0.00,OVC,,0.00,WeatherDisplay:10.37,2013-05-12 07:44:00,
2013-05-12 03:49:00,46.8,42.2,29.69,West,270,13.0,13.0,84,0.00,OVC,,0.00,WeatherDisplay:10.37,2013-05-12 07:49:00,
2013-05-12 03:54:00,46.6,42.0,29.69,WSW,248,14.5,14.5,84,0.00,OVC,,0.00,WeatherDisplay:10.37,2013-05-12 07:54:00,
2013-05-12 03:59:00,46.6,42.3,29.69,WSW,248,9.2,9.2,85,0.00,OVC,,0.00,WeatherDisplay:10.37,2013-05-12 07:59:00,
2013-05-12 04:04:00,46.6,42.3,29.69,West,270,10.4,10.4,85,0.00,OVC,,0.00,WeatherDisplay:10.37,2013-05-12 08:04:00,
2013-05-12 04:09:00,46.4,42.1,29.69,West,270,11.5,11.5,85,0.00,OVC,,0.00,WeatherDisplay:10.37,2013-05-12 08:09:00,
2013-05-12 04:14:00,46.2,41.6,29.70,WSW,248,13.8,13.8,84,0.00,OVC,,0.00,WeatherDisplay:10.37,2013-05-12 08:14:00,
2013-05-12 04:19:00,46.2,41.9,29.70,West,270,12.4,12.4,85,0.00,OVC,,0.00,WeatherDisplay:10.37,2013-05-12 08:19:00,
2013-05-12 04:24:00,45.7,40.8,29.70,West,270,16.1,16.1,83,0.00,OVC,,0.00,WeatherDisplay:10.37,2013-05-12 08:24:00,
2013-05-12 04:29:00,45.3,39.8,29.70,West,270,21.2,21.2,81,0.00,OVC,,0.00,WeatherDisplay:10.37,2013-05-12 08:29:00,
2013-05-12 04:34:00,45.0,38.6,29.70,West,270,12.7,12.7,78,0.00,OVC,,0.00,WeatherDisplay:10.37,2013-05-12 08:34:00,
2013-05-12 04:39:00,44.8,38.4,29.70,WSW,248,16.1,16.1,78,0.00,OVC,,0.00,WeatherDisplay:10.37,2013-05-12 08:39:00,
2013-05-12 04:44:00,44.4,38.3,29.70,West,270,10.4,10.4,79,0.00,OVC,,0.00,WeatherDisplay:10.37,2013-05-12 08:44:00,
2013-05-12 04:49:00,44.2,38.4,29.70,West,270,11.4,11.4,80,0.00,OVC,,0.00,WeatherDisplay:10.37,2013-05-12 08:49:00,
2013-05-12 04:54:00,44.1,38.0,29.70,WSW,248,13.8,13.8,79,0.00,OVC,,0.00,WeatherDisplay:10.37,2013-05-12 08:54:00,
2013-05-12 04:59:00,43.7,37.0,29.70,West,270,12.7,12.7,77,0.00,OVC,,0.00,WeatherDisplay:10.37,2013-05-12 08:59:00,
2013-05-12 05:04:00,43.2,35.5,29.72,West,270,13.5,13.5,74,0.00,OVC,,0.00,WeatherDisplay:10.37,2013-05-12 09:04:00,
2013-05-12 05:09:00,42.8,34.7,29.72,West,270,17.3,17.3,73,0.00,OVC,,0.00,WeatherDisplay:10.37,2013-05-12 09:09:00,
2013-05-12 05:14:00,42.4,34.7,29.72,WSW,248,13.5,13.5,74,0.00,OVC,,0.00,WeatherDisplay:10.37,2013-05-12 09:14:00,
2013-05-12 05:19:00,42.3,34.6,29.72,WSW,248,11.5,11.5,74,0.00,OVC,,0.00,WeatherDisplay:10.37,2013-05-12 09:19:00,
2013-05-12 05:24:00,42.1,34.4,29.72,West,270,10.4,10.4,74,0.00,OVC,,0.00,WeatherDisplay:10.37,2013-05-12 09:24:00,
2013-05-12 05:29:00,41.7,34.0,29.73,WSW,248,10.4,10.4,74,0.00,OVC,,0.00,WeatherDisplay:10.37,2013-05-12 09:29:00,
2013-05-12 05:34:00,41.4,33.7,29.73,West,270,9.9,9.9,74,0.00,BKN,,0.00,WeatherDisplay:10.37,2013-05-12 09:34:00,
2013-05-12 05:39:00,41.2,32.9,29.73,WSW,248,12.7,12.7,72,0.00,BKN,,0.00,WeatherDisplay:10.37,2013-05-12 09:39:00,
2013-05-12 05:44:00,41.0,32.3,29.73,West,270,11.9,11.9,71,0.00,BKN,,0.00,WeatherDisplay:10.37,2013-05-12 09:44:00,
2013-05-12 05:49:00,40.8,32.1,29.74,SW,225,10.4,10.4,71,0.00,BKN,,0.00,WeatherDisplay:10.37,2013-05-12 09:49:00,
2013-05-12 05:54:00,40.6,31.2,29.74,West,270,10.4,10.4,69,0.00,BKN,,0.00,WeatherDisplay:10.37,2013-05-12 09:54:00,
2013-05-12 05:59:00,40.3,31.3,29.74,WSW,248,6.9,6.9,70,0.00,BKN,,0.00,WeatherDisplay:10.37,2013-05-12 09:59:00,
2013-05-12 06:04:00,40.1,31.1,29.74,WSW,248,10.4,10.4,70,0.00,CLR,,0.00,WeatherDisplay:10.37,2013-05-12 10:04:00,
2013-05-12 06:09:00,40.1,31.8,29.74,West,270,6.9,6.9,72,0.00,CLR,,0.00,WeatherDisplay:10.37,2013-05-12 10:09:00,
2013-05-12 06:14:00,39.9,31.6,29.74,WSW,248,8.1,8.1,72,0.00,CLR,,0.00,WeatherDisplay:10.37,2013-05-12 10:14:00,
2013-05-12 06:19:00,39.7,31.8,29.74,West,270,5.8,5.8,73,0.00,CLR,,0.00,WeatherDisplay:10.37,2013-05-12 10:19:00,
2013-05-12 06:24:00,39.7,32.1,29.74,West,270,5.8,5.8,74,0.00,CLR,,0.00,WeatherDisplay:10.37,2013-05-12 10:24:00,
2013-05-12 06:29:00,39.9,32.3,29.75,SW,225,4.6,4.6,74,0.00,CLR,,0.00,WeatherDisplay:10.37,2013-05-12 10:29:00,
2013-05-12 06:34:00,40.3,32.7,29.75,West,270,4.7,4.7,74,0.00,CLR,,0.00,WeatherDisplay:10.37,2013-05-12 10:34:00,
2013-05-12 06:39:00,40.8,32.8,29.75,West,270,4.6,4.6,73,0.00,CLR,,0.00,WeatherDisplay:10.37,2013-05-12 10:39:00,
2013-05-12 06:44:00,41.2,33.2,29.75,WSW,248,3.5,3.5,73,0.00,CLR,,0.00,WeatherDisplay:10.37,2013-05-12 10:44:00,
2013-05-12 06:49:00,41.7,33.3,29.75,WSW,248,3.5,3.5,72,0.00,CLR,,0.00,WeatherDisplay:10.37,2013-05-12 10:49:00,
2013-05-12 06:54:00,42.4,34.0,29.75,WSW,248,2.7,2.7,72,0.00,CLR,,0.00,WeatherDisplay:10.37,2013-05-12 10:54:00,
2013-05-12 06:59:00,42.6,33.9,29.75,WSW,248,3.7,3.7,71,0.00,CLR,,0.00,WeatherDisplay:10.37,2013-05-12 10:59:00,
2013-05-12 07:04:00,42.4,33.7,29.76,SW,225,4.7,4.7,71,0.00,CLR,,0.00,WeatherDisplay:10.37,2013-05-12 11:04:00,
2013-05-12 07:09:00,43.2,34.8,29.76,SW,225,4.6,4.6,72,0.00,CLR,,0.00,WeatherDisplay:10.37,2013-05-12 11:09:00,
2013-05-12 07:14:00,43.7,34.9,29.76,West,270,4.6,4.6,71,0.00,CLR,,0.00,WeatherDisplay:10.37,2013-05-12 11:14:00,
2013-05-12 07:19:00,43.3,35.2,29.76,SW,225,5.8,5.8,73,0.00,CLR,,0.00,WeatherDisplay:10.37,2013-05-12 11:19:00,
2013-05-12 07:24:00,43.7,35.6,29.76,SW,225,6.9,6.9,73,0.00,CLR,,0.00,WeatherDisplay:10.37,2013-05-12 11:24:00,
2013-05-12 07:29:00,43.9,35.8,29.76,SW,225,3.5,3.7,73,0.00,CLR,,0.00,WeatherDisplay:10.37,2013-05-12 11:29:00,
2013-05-12 07:34:00,44.6,36.5,29.76,South,180,5.8,5.8,73,0.00,CLR,,0.00,WeatherDisplay:10.37,2013-05-12 11:34:00,
2013-05-12 07:39:00,44.2,35.7,29.76,SW,225,10.4,10.4,72,0.00,CLR,,0.00,WeatherDisplay:10.37,2013-05-12 11:39:00,
2013-05-12 07:44:00,44.1,34.2,29.76,WSW,248,10.4,10.4,68,0.00,CLR,,0.00,WeatherDisplay:10.37,2013-05-12 11:44:00,
2013-05-12 07:49:00,43.7,34.6,29.76,WSW,248,8.3,8.3,70,0.00,CLR,,0.00,WeatherDisplay:10.37,2013-05-12 11:49:00,
2013-05-12 07:54:00,44.1,34.6,29.77,WSW,248,11.5,11.5,69,0.00,CLR,,0.00,WeatherDisplay:10.37,2013-05-12 11:54:00,
2013-05-12 07:59:00,44.2,34.7,29.77,WSW,248,10.4,10.4,69,0.00,CLR,,0.00,WeatherDisplay:10.37,2013-05-12 11:59:00,
2013-05-12 08:04:00,44.8,35.6,29.76,SW,225,8.1,8.1,70,0.00,CLR,,0.00,WeatherDisplay:10.37,2013-05-12 12:04:00,
2013-05-12 08:09:00,45.0,35.8,29.76,West,270,8.1,8.7,70,0.00,CLR,,0.00,WeatherDisplay:10.37,2013-05-12 12:09:00,
2013-05-12 08:14:00,44.2,35.4,29.76,West,270,13.8,13.8,71,0.00,CLR,,0.00,WeatherDisplay:10.37,2013-05-12 12:14:00,
2013-05-12 08:19:00,44.8,36.0,29.76,WSW,248,10.4,10.4,71,0.00,CLR,,0.00,WeatherDisplay:10.37,2013-05-12 12:19:00,
2013-05-12 08:24:00,45.3,36.1,29.76,SW,225,11.4,11.4,70,0.00,CLR,,0.00,WeatherDisplay:10.37,2013-05-12 12:24:00,
2013-05-12 08:29:00,44.8,35.2,29.76,SW,225,13.8,13.8,69,0.00,CLR,,0.00,WeatherDisplay:10.37,2013-05-12 12:29:00,
2013-05-12 08:34:00,44.8,35.2,29.76,SW,225,13.8,13.8,69,0.00,CLR,,0.00,WeatherDisplay:10.37,2013-05-12 12:34:00,
2013-05-12 08:39:00,44.8,35.2,29.76,SSW,202,13.8,13.8,69,0.00,CLR,,0.00,WeatherDisplay:10.37,2013-05-12 12:39:00,
2013-05-12 08:44:00,44.6,34.7,29.76,West,270,16.1,16.1,68,0.00,CLR,,0.00,WeatherDisplay:10.37,2013-05-12 12:44:00,
2013-05-12 08:49:00,44.8,35.2,29.76,WSW,248,12.7,12.7,69,0.00,CLR,,0.00,WeatherDisplay:10.37,2013-05-12 12:49:00,
2013-05-12 08:54:00,45.1,34.8,29.76,SW,225,16.1,16.1,67,0.00,CLR,,0.00,WeatherDisplay:10.37,2013-05-12 12:54:00,
2013-05-12 08:59:00,46.0,35.3,29.76,SW,225,12.4,12.4,66,0.00,CLR,,0.00,WeatherDisplay:10.37,2013-05-12 12:59:00,
2013-05-12 09:04:00,46.2,34.7,29.76,WSW,248,11.5,11.9,64,0.00,FEW,,0.00,WeatherDisplay:10.37,2013-05-12 13:04:00,
2013-05-12 09:09:00,45.5,34.0,29.76,West,270,19.6,19.6,64,0.00,FEW,,0.00,WeatherDisplay:10.37,2013-05-12 13:09:00,
2013-05-12 09:14:00,45.9,33.6,29.76,West,270,15.0,15.0,62,0.00,FEW,,0.00,WeatherDisplay:10.37,2013-05-12 13:14:00,
2013-05-12 09:19:00,46.4,34.5,29.76,WSW,248,17.3,17.3,63,0.00,FEW,,0.00,WeatherDisplay:10.37,2013-05-12 13:19:00,
2013-05-12 09:24:00,46.2,33.5,29.76,WSW,248,16.6,16.6,61,0.00,FEW,,0.00,WeatherDisplay:10.37,2013-05-12 13:24:00,
2013-05-12 09:29:00,46.2,33.5,29.76,SW,225,9.4,9.4,61,0.00,FEW,,0.00,WeatherDisplay:10.37,2013-05-12 13:29:00,
2013-05-12 09:34:00,45.9,31.9,29.76,West,270,19.6,19.6,58,0.00,FEW,,0.00,WeatherDisplay:10.37,2013-05-12 13:34:00,
2013-05-12 09:39:00,46.2,32.2,29.76,SW,225,16.1,16.1,58,0.00,FEW,,0.00,WeatherDisplay:10.37,2013-05-12 13:39:00,
2013-05-12 09:44:00,46.4,32.0,29.76,SW,225,23.0,23.0,57,0.00,FEW,,0.00,WeatherDisplay:10.37,2013-05-12 13:44:00,
2013-05-12 09:49:00,47.3,32.8,29.76,SW,225,12.4,12.4,57,0.00,FEW,,0.00,WeatherDisplay:10.37,2013-05-12 13:49:00,
2013-05-12 09:54:00,47.1,31.3,29.76,West,270,18.6,18.6,54,0.00,FEW,,0.00,WeatherDisplay:10.37,2013-05-12 13:54:00,
2013-05-12 09:59:00,47.5,32.6,29.76,SW,225,11.9,11.9,56,0.00,FEW,,0.00,WeatherDisplay:10.37,2013-05-12 13:59:00,
2013-05-12 10:04:00,48.2,30.9,29.76,SW,225,17.1,17.1,51,0.00,CLR,,0.00,WeatherDisplay:10.37,2013-05-12 14:04:00,
2013-05-12 10:09:00,47.5,29.3,29.76,SW,225,20.7,20.7,49,0.00,CLR,,0.00,WeatherDisplay:10.37,2013-05-12 14:09:00,
2013-05-12 10:14:00,47.7,30.0,29.76,SW,225,17.3,17.3,50,0.00,CLR,,0.00,WeatherDisplay:10.37,2013-05-12 14:14:00,
2013-05-12 10:19:00,48.0,30.7,29.76,WSW,248,25.3,25.3,51,0.00,CLR,,0.00,WeatherDisplay:10.37,2013-05-12 14:19:00,
2013-05-12 10:24:00,47.7,30.0,29.76,SW,225,21.9,21.9,50,0.00,CLR,,0.00,WeatherDisplay:10.37,2013-05-12 14:24:00,
2013-05-12 10:29:00,47.1,29.4,29.75,SW,225,20.7,20.7,50,0.00,CLR,,0.00,WeatherDisplay:10.37,2013-05-12 14:29:00,
2013-05-12 10:34:00,48.2,28.9,29.75,WSW,248,19.6,19.6,47,0.00,CLR,,0.00,WeatherDisplay:10.37,2013-05-12 14:34:00,
2013-05-12 10:39:00,49.1,30.2,29.76,WSW,248,15.5,15.5,48,0.00,CLR,,0.00,WeatherDisplay:10.37,2013-05-12 14:39:00,
2013-05-12 10:44:00,48.0,29.2,29.76,West,270,27.3,27.3,48,0.00,CLR,,0.00,WeatherDisplay:10.37,2013-05-12 14:44:00,
2013-05-12 10:49:00,48.4,29.1,29.76,West,270,17.3,17.3,47,0.00,CLR,,0.00,WeatherDisplay:10.37,2013-05-12 14:49:00,
2013-05-12 10:54:00,48.6,29.3,29.76,West,270,20.7,20.7,47,0.00,CLR,,0.00,WeatherDisplay:10.37,2013-05-12 14:54:00,
2013-05-12 10:59:00,48.2,29.4,29.76,WSW,248,20.7,20.7,48,0.00,CLR,,0.00,WeatherDisplay:10.37,2013-05-12 14:59:00,
2013-05-12 11:04:00,48.9,29.0,29.76,WSW,248,21.9,21.9,46,0.00,BKN,,0.00,WeatherDisplay:10.37,2013-05-12 15:04:00,
2013-05-12 11:09:00,48.6,29.8,29.76,WSW,248,18.4,18.4,48,0.00,BKN,,0.00,WeatherDisplay:10.37,2013-05-12 15:09:00,
2013-05-12 11:14:00,49.1,29.2,29.76,SW,225,20.7,20.7,46,0.00,BKN,,0.00,WeatherDisplay:10.37,2013-05-12 15:14:00,
2013-05-12 11:19:00,47.7,28.4,29.76,SSW,202,21.9,21.9,47,0.00,BKN,,0.00,WeatherDisplay:10.37,2013-05-12 15:19:00,
2013-05-12 11:24:00,48.2,28.9,29.76,WSW,248,19.6,19.6,47,0.00,BKN,,0.00,WeatherDisplay:10.37,2013-05-12 15:24:00,
2013-05-12 11:29:00,48.4,28.5,29.76,WSW,248,21.9,21.9,46,0.00,BKN,,0.00,WeatherDisplay:10.37,2013-05-12 15:29:00,
2013-05-12 11:34:00,47.8,28.5,29.76,West,270,23.2,23.2,47,0.00,BKN,,0.00,WeatherDisplay:10.37,2013-05-12 15:34:00,
2013-05-12 11:39:00,49.1,29.7,29.76,West,270,15.0,15.0,47,0.00,BKN,,0.00,WeatherDisplay:10.37,2013-05-12 15:39:00,
2013-05-12 11:44:00,48.9,29.0,29.76,WSW,248,21.9,21.9,46,0.00,BKN,,0.00,WeatherDisplay:10.37,2013-05-12 15:44:00,
2013-05-12 11:49:00,50.2,28.0,29.76,WSW,248,25.3,25.3,42,0.00,BKN,,0.00,WeatherDisplay:10.37,2013-05-12 15:49:00,
2013-05-12 11:54:00,49.1,28.7,29.76,WSW,248,21.2,21.2,45,0.00,BKN,,0.00,WeatherDisplay:10.37,2013-05-12 15:54:00,
2013-05-12 11:59:00,49.1,29.7,29.76,SW,225,18.6,18.6,47,0.00,BKN,,0.00,WeatherDisplay:10.37,2013-05-12 15:59:00,
2013-05-12 12:04:00,50.0,30.0,29.76,West,270,18.4,18.4,46,0.00,BKN,,0.00,WeatherDisplay:10.37,2013-05-12 16:04:00,
2013-05-12 12:09:00,48.9,29.5,29.76,West,270,19.6,19.6,47,0.00,BKN,,0.00,WeatherDisplay:10.37,2013-05-12 16:09:00,
2013-05-12 12:14:00,48.9,29.5,29.76,SW,225,11.9,11.9,47,0.00,BKN,,0.00,WeatherDisplay:10.37,2013-05-12 16:14:00,
2013-05-12 12:19:00,49.8,29.3,29.76,SSW,202,17.3,17.3,45,0.00,BKN,,0.00,WeatherDisplay:10.37,2013-05-12 16:19:00,
2013-05-12 12:24:00,49.6,29.6,29.76,SW,225,15.5,15.5,46,0.00,BKN,,0.00,WeatherDisplay:10.37,2013-05-12 16:24:00,
2013-05-12 12:29:00,50.7,31.7,29.76,SW,225,12.4,12.4,48,0.00,BKN,,0.00,WeatherDisplay:10.37,2013-05-12 16:29:00,
2013-05-12 12:34:00,50.7,31.7,29.76,WSW,248,19.6,19.6,48,0.00,BKN,,0.00,WeatherDisplay:10.37,2013-05-12 16:34:00,
2013-05-12 12:39:00,50.7,29.0,29.76,WSW,248,25.3,25.3,43,0.00,BKN,,0.00,WeatherDisplay:10.37,2013-05-12 16:39:00,
2013-05-12 12:44:00,52.0,31.3,29.76,SW,225,18.4,18.4,45,0.00,BKN,,0.00,WeatherDisplay:10.37,2013-05-12 16:44:00,
2013-05-12 12:49:00,53.4,32.0,29.76,West,270,18.4,18.4,44,0.00,BKN,,0.00,WeatherDisplay:10.37,2013-05-12 16:49:00,
2013-05-12 12:54:00,52.0,30.7,29.76,SW,225,24.2,24.2,44,0.00,BKN,,0.00,WeatherDisplay:10.37,2013-05-12 16:54:00,
2013-05-12 12:59:00,52.2,32.0,29.76,SW,225,22.2,22.2,46,0.00,BKN,,0.00,WeatherDisplay:10.37,2013-05-12 16:59:00,
2013-05-12 13:04:00,52.0,31.3,29.76,SW,225,20.7,20.7,45,0.00,BKN,,0.00,WeatherDisplay:10.37,2013-05-12 17:04:00,
2013-05-12 13:09:00,54.3,32.3,29.76,SW,225,20.7,20.7,43,0.00,BKN,,0.00,WeatherDisplay:10.37,2013-05-12 17:09:00,
2013-05-12 13:14:00,54.7,33.2,29.76,SW,225,16.1,16.1,44,0.00,BKN,,0.00,WeatherDisplay:10.37,2013-05-12 17:14:00,
2013-05-12 13:19:00,52.9,32.7,29.76,SSW,202,15.0,15.0,46,0.00,BKN,,0.00,WeatherDisplay:10.37,2013-05-12 17:19:00,
2013-05-12 13:24:00,50.4,31.4,29.76,SW,225,19.6,19.6,48,0.00,BKN,,0.00,WeatherDisplay:10.37,2013-05-12 17:24:00,
2013-05-12 13:29:00,49.5,32.1,29.76,SW,225,13.0,13.0,51,0.00,BKN,,0.00,WeatherDisplay:10.37,2013-05-12 17:29:00,
2013-05-12 13:34:00,50.0,32.6,29.76,West,270,12.7,12.7,51,0.00,BKN,,0.00,WeatherDisplay:10.37,2013-05-12 17:34:00,
2013-05-12 13:39:00,49.1,31.2,29.76,West,270,19.6,19.7,50,0.00,BKN,,0.00,WeatherDisplay:10.37,2013-05-12 17:39:00,
2013-05-12 13:44:00,50.2,31.8,29.76,WSW,248,18.4,18.4,49,0.00,BKN,,0.00,WeatherDisplay:10.37,2013-05-12 17:44:00,
2013-05-12 13:49:00,51.6,30.9,29.76,SW,225,19.6,19.6,45,0.00,BKN,,0.00,WeatherDisplay:10.37,2013-05-12 17:49:00,
2013-05-12 13:54:00,51.6,32.0,29.76,SW,225,17.3,17.3,47,0.00,BKN,,0.00,WeatherDisplay:10.37,2013-05-12 17:54:00,
2013-05-12 13:59:00,52.5,31.8,29.76,SSW,202,18.4,18.4,45,0.00,BKN,,0.00,WeatherDisplay:10.37,2013-05-12 17:59:00,
2013-05-12 14:04:00,51.4,31.3,29.76,West,270,21.9,21.9,46,0.00,BKN,,0.00,WeatherDisplay:10.37,2013-05-12 18:04:00,
2013-05-12 14:09:00,51.3,30.7,29.76,West,270,17.6,17.6,45,0.00,BKN,,0.00,WeatherDisplay:10.37,2013-05-12 18:09:00,
2013-05-12 14:14:00,50.7,30.7,29.76,WSW,248,20.7,20.7,46,0.00,BKN,,0.00,WeatherDisplay:10.37,2013-05-12 18:14:00,
2013-05-12 14:19:00,49.1,30.7,29.76,West,270,20.7,20.7,49,0.00,BKN,,0.00,WeatherDisplay:10.37,2013-05-12 18:19:00,
2013-05-12 14:24:00,49.3,30.9,29.76,SW,225,18.4,18.4,49,0.00,BKN,,0.00,WeatherDisplay:10.37,2013-05-12 18:24:00,
2013-05-12 14:29:00,50.0,30.5,29.77,SW,225,19.6,19.6,47,0.00,BKN,,0.00,WeatherDisplay:10.37,2013-05-12 18:29:00,
2013-05-12 14:34:00,52.9,32.1,29.77,West,270,18.1,18.1,45,0.00,BKN,,0.00,WeatherDisplay:10.37,2013-05-12 18:34:00,
2013-05-12 14:39:00,51.3,29.5,29.76,West,270,24.2,24.2,43,0.00,BKN,,0.00,WeatherDisplay:10.37,2013-05-12 18:39:00,
2013-05-12 14:44:00,50.7,29.0,29.76,SW,225,22.7,22.7,43,0.00,BKN,,0.00,WeatherDisplay:10.37,2013-05-12 18:44:00,
2013-05-12 14:49:00,50.4,29.3,29.77,West,270,19.6,19.6,44,0.00,BKN,,0.00,WeatherDisplay:10.37,2013-05-12 18:49:00,
2013-05-12 14:54:00,50.0,29.5,29.77,SW,225,20.7,20.7,45,0.00,BKN,,0.00,WeatherDisplay:10.37,2013-05-12 18:54:00,
2013-05-12 14:59:00,51.8,30.6,29.77,SW,225,18.1,18.1,44,0.00,BKN,,0.00,WeatherDisplay:10.37,2013-05-12 18:59:00,
2013-05-12 15:04:00,51.8,30.0,29.77,WSW,248,16.1,16.1,43,0.00,BKN,,0.00,WeatherDisplay:10.37,2013-05-12 19:04:00,
2013-05-12 15:09:00,51.4,29.6,29.77,SW,225,15.0,15.0,43,0.00,BKN,,0.00,WeatherDisplay:10.37,2013-05-12 19:09:00,
2013-05-12 15:14:00,52.0,28.4,29.77,West,270,23.0,23.0,40,0.00,BKN,,0.00,WeatherDisplay:10.37,2013-05-12 19:14:00,
2013-05-12 15:19:00,50.9,28.6,29.77,WSW,248,27.3,27.3,42,0.00,BKN,,0.00,WeatherDisplay:10.37,2013-05-12 19:19:00,
2013-05-12 15:24:00,50.5,28.2,29.77,WSW,248,18.6,18.6,42,0.00,BKN,,0.00,WeatherDisplay:10.37,2013-05-12 19:24:00,
2013-05-12 15:29:00,50.5,28.2,29.78,WSW,248,18.6,18.6,42,0.00,BKN,,0.00,WeatherDisplay:10.37,2013-05-12 19:29:00,
2013-05-12 15:34:00,50.9,28.6,29.78,West,270,19.6,19.6,42,0.00,BKN,,0.00,WeatherDisplay:10.37,2013-05-12 19:34:00,
2013-05-12 15:39:00,50.5,28.2,29.77,WSW,248,19.6,19.6,42,0.00,BKN,,0.00,WeatherDisplay:10.37,2013-05-12 19:39:00,
2013-05-12 15:44:00,50.5,28.8,29.77,SW,225,20.7,20.7,43,0.00,BKN,,0.00,WeatherDisplay:10.37,2013-05-12 19:44:00,
2013-05-12 15:49:00,51.6,29.2,29.77,WSW,248,18.4,18.4,42,0.00,BKN,,0.00,WeatherDisplay:10.37,2013-05-12 19:49:00,
2013-05-12 15:54:00,52.0,29.0,29.77,SW,225,20.2,20.2,41,0.00,BKN,,0.00,WeatherDisplay:10.37,2013-05-12 19:54:00,
2013-05-12 15:59:00,51.6,28.0,29.77,West,270,21.7,21.7,40,0.00,BKN,,0.00,WeatherDisplay:10.37,2013-05-12 19:59:00,
2013-05-12 16:04:00,52.9,28.6,29.77,SW,225,17.1,17.1,39,0.00,OVC,,0.00,WeatherDisplay:10.37,2013-05-12 20:04:00,
2013-05-12 16:09:00,52.7,29.0,29.77,SW,225,21.2,21.2,40,0.00,OVC,,0.00,WeatherDisplay:10.37,2013-05-12 20:09:00,
2013-05-12 16:14:00,51.4,28.5,29.78,WSW,248,21.7,21.7,41,0.00,OVC,,0.00,WeatherDisplay:10.37,2013-05-12 20:14:00,
2013-05-12 16:19:00,54.0,30.8,29.78,WSW,248,18.4,18.4,41,0.00,OVC,,0.00,WeatherDisplay:10.37,2013-05-12 20:19:00,
2013-05-12 16:24:00,52.7,29.0,29.78,WSW,248,20.7,20.7,40,0.00,OVC,,0.00,WeatherDisplay:10.37,2013-05-12 20:24:00,
2013-05-12 16:29:00,51.4,28.5,29.78,SW,225,25.3,25.3,41,0.00,OVC,,0.00,WeatherDisplay:10.37,2013-05-12 20:29:00,
2013-05-12 16:34:00,51.1,28.8,29.78,SW,225,25.3,25.3,42,0.00,OVC,,0.00,WeatherDisplay:10.37,2013-05-12 20:34:00,
2013-05-12 16:39:00,50.9,28.0,29.78,WSW,248,18.4,18.4,41,0.00,OVC,,0.00,WeatherDisplay:10.37,2013-05-12 20:39:00,
2013-05-12 16:44:00,50.4,28.1,29.78,WSW,248,20.7,20.7,42,0.00,OVC,,0.00,WeatherDisplay:10.37,2013-05-12 20:44:00,
2013-05-12 16:49:00,50.7,28.4,29.78,WSW,248,20.7,20.7,42,0.00,OVC,,0.00,WeatherDisplay:10.37,2013-05-12 20:49:00,
2013-05-12 16:54:00,50.7,28.4,29.78,West,270,19.6,19.6,42,0.00,OVC,,0.00,WeatherDisplay:10.37,2013-05-12 20:54:00,
2013-05-12 16:59:00,50.5,28.2,29.78,WSW,248,24.2,24.2,42,0.00,OVC,,0.00,WeatherDisplay:10.37,2013-05-12 20:59:00,
2013-05-12 17:04:00,50.2,28.0,29.79,WSW,248,26.5,26.5,42,0.00,BKN,,0.00,WeatherDisplay:10.37,2013-05-12 21:04:00,
2013-05-12 17:09:00,50.5,28.2,29.79,WSW,248,20.7,20.7,42,0.00,BKN,,0.00,WeatherDisplay:10.37,2013-05-12 21:09:00,
2013-05-12 17:14:00,50.5,28.8,29.79,West,270,15.0,15.0,43,0.00,BKN,,0.00,WeatherDisplay:10.37,2013-05-12 21:14:00,
2013-05-12 17:19:00,51.1,29.4,29.79,WSW,248,19.6,19.6,43,0.00,BKN,,0.00,WeatherDisplay:10.37,2013-05-12 21:19:00,
2013-05-12 17:24:00,51.1,29.4,29.79,WSW,248,16.6,16.6,43,0.00,BKN,,0.00,WeatherDisplay:10.37,2013-05-12 21:24:00,
2013-05-12 17:29:00,51.8,28.2,29.78,West,270,20.7,20.7,40,0.00,BKN,,0.00,WeatherDisplay:10.37,2013-05-12 21:29:00,
2013-05-12 17:34:00,50.7,28.4,29.78,West,270,23.8,23.8,42,0.00,BKN,,0.00,WeatherDisplay:10.37,2013-05-12 21:34:00,
2013-05-12 17:39:00,51.1,28.8,29.79,SW,225,13.8,13.8,42,0.00,BKN,,0.00,WeatherDisplay:10.37,2013-05-12 21:39:00,
2013-05-12 17:44:00,50.9,29.2,29.79,SW,225,14.5,14.5,43,0.00,BKN,,0.00,WeatherDisplay:10.37,2013-05-12 21:44:00,
2013-05-12 17:49:00,50.4,27.6,29.79,WSW,248,23.0,23.0,41,0.00,BKN,,0.00,WeatherDisplay:10.37,2013-05-12 21:49:00,
2013-05-12 17:54:00,51.1,28.8,29.79,WSW,248,18.1,18.1,42,0.00,BKN,,0.00,WeatherDisplay:10.37,2013-05-12 21:54:00,
2013-05-12 17:59:00,51.3,28.4,29.79,WSW,248,19.6,19.6,41,0.00,BKN,,0.00,WeatherDisplay:10.37,2013-05-12 21:59:00,
2013-05-12 18:04:00,50.2,28.0,29.79,West,270,20.7,20.7,42,0.00,OVC,,0.00,WeatherDisplay:10.37,2013-05-12 22:04:00,
2013-05-12 18:09:00,50.7,28.4,29.79,SW,225,16.1,16.1,42,0.00,OVC,,0.00,WeatherDisplay:10.37,2013-05-12 22:09:00,
2013-05-12 18:14:00,50.2,28.0,29.79,SW,225,21.9,21.9,42,0.00,OVC,,0.00,WeatherDisplay:10.37,2013-05-12 22:14:00,
2013-05-12 18:19:00,50.2,27.4,29.79,SW,225,19.6,19.6,41,0.00,OVC,,0.00,WeatherDisplay:10.37,2013-05-12 22:19:00,
2013-05-12 18:24:00,50.4,27.6,29.79,WSW,248,18.4,18.4,41,0.00,OVC,,0.00,WeatherDisplay:10.37,2013-05-12 22:24:00,
2013-05-12 18:29:00,51.4,28.5,29.80,West,270,20.7,20.7,41,0.00,OVC,,0.00,WeatherDisplay:10.37,2013-05-12 22:29:00,
2013-05-12 18:34:00,52.0,30.2,29.80,SW,225,19.6,19.6,43,0.00,OVC,,0.00,WeatherDisplay:10.37,2013-05-12 22:34:00,
2013-05-12 18:39:00,51.3,29.0,29.80,WSW,248,20.7,20.7,42,0.00,OVC,,0.00,WeatherDisplay:10.37,2013-05-12 22:39:00,
2013-05-12 18:44:00,50.4,29.3,29.80,WSW,248,17.6,17.6,44,0.00,OVC,,0.00,WeatherDisplay:10.37,2013-05-12 22:44:00,
2013-05-12 18:49:00,50.2,28.5,29.80,SW,225,17.3,17.3,43,0.00,OVC,,0.00,WeatherDisplay:10.37,2013-05-12 22:49:00,
2013-05-12 18:54:00,50.2,28.0,29.80,WSW,248,21.9,21.9,42,0.00,OVC,,0.00,WeatherDisplay:10.37,2013-05-12 22:54:00,
2013-05-12 18:59:00,50.2,29.7,29.80,SW,225,12.7,12.7,45,0.00,OVC,,0.00,WeatherDisplay:10.37,2013-05-12 22:59:00,
2013-05-12 19:04:00,50.4,29.8,29.80,WSW,248,13.0,13.0,45,0.00,BKN,,0.00,WeatherDisplay:10.37,2013-05-12 23:04:00,
2013-05-12 19:09:00,50.5,30.5,29.80,WSW,248,11.4,11.4,46,0.00,BKN,,0.00,WeatherDisplay:10.37,2013-05-12 23:09:00,
2013-05-12 19:14:00,49.6,29.1,29.81,WSW,248,13.8,13.8,45,0.00,BKN,,0.00,WeatherDisplay:10.37,2013-05-12 23:14:00,
2013-05-12 19:19:00,49.3,29.4,29.81,West,270,11.9,11.9,46,0.00,BKN,,0.00,WeatherDisplay:10.37,2013-05-12 23:19:00,
2013-05-12 19:24:00,49.1,29.7,29.81,West,270,8.3,8.4,47,0.00,BKN,,0.00,WeatherDisplay:10.37,2013-05-12 23:24:00,
2013-05-12 19:29:00,48.9,29.5,29.81,SW,225,12.4,12.4,47,0.00,BKN,,0.00,WeatherDisplay:10.37,2013-05-12 23:29:00,
2013-05-12 19:34:00,49.3,28.8,29.81,West,270,15.0,15.0,45,0.00,BKN,,0.00,WeatherDisplay:10.37,2013-05-12 23:34:00,
2013-05-12 19:39:00,49.1,28.7,29.81,WSW,248,18.4,18.4,45,0.00,BKN,,0.00,WeatherDisplay:10.37,2013-05-12 23:39:00,
2013-05-12 19:44:00,48.9,29.5,29.81,West,270,15.0,15.0,47,0.00,BKN,,0.00,WeatherDisplay:10.37,2013-05-12 23:44:00,
2013-05-12 19:49:00,48.7,29.4,29.81,West,270,16.1,16.1,47,0.00,BKN,,0.00,WeatherDisplay:10.37,2013-05-12 23:49:00,
2013-05-12 19:54:00,48.6,29.8,29.81,West,270,10.4,10.4,48,0.00,BKN,,0.00,WeatherDisplay:10.37,2013-05-12 23:54:00,
2013-05-12 19:59:00,48.4,30.1,29.81,SW,225,11.5,11.5,49,0.00,BKN,,0.00,WeatherDisplay:10.37,2013-05-12 23:59:00,
2013-05-12 20:04:00,48.2,29.9,29.82,West,270,9.4,9.4,49,0.00,OVC,,0.00,WeatherDisplay:10.37,2013-05-13 00:04:00,
2013-05-12 20:09:00,48.2,29.9,29.82,SW,225,9.2,9.2,49,0.00,OVC,,0.00,WeatherDisplay:10.37,2013-05-13 00:09:00,
2013-05-12 20:14:00,48.2,29.9,29.82,SW,225,8.1,8.1,49,0.00,OVC,,0.00,WeatherDisplay:10.37,2013-05-13 00:14:00,
2013-05-12 20:19:00,48.0,30.2,29.82,SW,225,9.2,9.2,50,0.00,OVC,,0.00,WeatherDisplay:10.37,2013-05-13 00:19:00,
2013-05-12 20:24:00,47.8,29.5,29.82,SSW,202,12.4,12.4,49,0.00,OVC,,0.00,WeatherDisplay:10.37,2013-05-13 00:24:00,
2013-05-12 20:29:00,47.8,29.5,29.82,SSW,202,12.7,12.7,49,0.00,OVC,,0.00,WeatherDisplay:10.37,2013-05-13 00:29:00,
2013-05-12 20:34:00,47.7,29.5,29.82,WSW,248,10.4,10.4,49,0.00,OVC,,0.00,WeatherDisplay:10.37,2013-05-13 00:34:00,
2013-05-12 20:39:00,47.7,29.5,29.82,West,270,9.2,9.2,49,0.00,OVC,,0.00,WeatherDisplay:10.37,2013-05-13 00:39:00,
2013-05-12 20:44:00,47.3,29.6,29.82,West,270,8.8,8.8,50,0.00,OVC,,0.00,WeatherDisplay:10.37,2013-05-13 00:44:00,
2013-05-12 20:49:00,47.5,29.8,29.82,SW,225,10.4,10.4,50,0.00,OVC,,0.00,WeatherDisplay:10.37,2013-05-13 00:49:00,
2013-05-12 20:54:00,47.5,29.8,29.82,SSW,202,10.4,10.4,50,0.00,OVC,,0.00,WeatherDisplay:10.37,2013-05-13 00:54:00,
2013-05-12 20:59:00,47.3,29.6,29.82,WSW,248,8.1,8.1,50,0.00,OVC,,0.00,WeatherDisplay:10.37,2013-05-13 00:59:00,
2013-05-12 21:04:00,47.3,29.6,29.83,West,270,9.2,9.2,50,0.00,OVC,,0.00,WeatherDisplay:10.37,2013-05-13 01:04:00,
2013-05-12 21:09:00,47.3,29.6,29.83,SW,225,11.5,11.5,50,0.00,OVC,,0.00,WeatherDisplay:10.37,2013-05-13 01:09:00,
2013-05-12 21:14:00,47.3,29.6,29.83,SW,225,12.7,12.7,50,0.00,OVC,,0.00,WeatherDisplay:10.37,2013-05-13 01:14:00,
2013-05-12 21:19:00,47.3,29.6,29.83,SW,225,10.4,10.4,50,0.00,OVC,,0.00,WeatherDisplay:10.37,2013-05-13 01:19:00,
2013-05-12 21:24:00,47.1,29.9,29.83,West,270,11.5,11.5,51,0.00,OVC,,0.00,WeatherDisplay:10.37,2013-05-13 01:24:00,
2013-05-12 21:29:00,47.1,29.9,29.84,WSW,248,9.2,9.2,51,0.00,OVC,,0.00,WeatherDisplay:10.37,2013-05-13 01:29:00,
2013-05-12 21:34:00,46.9,30.2,29.84,West,270,9.2,9.2,52,0.00,OVC,,0.00,WeatherDisplay:10.37,2013-05-13 01:34:00,
2013-05-12 21:39:00,46.9,30.2,29.85,West,270,9.2,9.2,52,0.00,OVC,,0.00,WeatherDisplay:10.37,2013-05-13 01:39:00,
2013-05-12 21:44:00,46.9,30.2,29.85,WSW,248,10.4,10.4,52,0.00,OVC,,0.00,WeatherDisplay:10.37,2013-05-13 01:44:00,
2013-05-12 21:49:00,46.6,29.9,29.85,SW,225,10.4,10.4,52,0.00,OVC,,0.00,WeatherDisplay:10.37,2013-05-13 01:49:00,
2013-05-12 21:54:00,46.4,30.2,29.85,SW,225,8.1,8.1,53,0.00,OVC,,0.00,WeatherDisplay:10.37,2013-05-13 01:54:00,
2013-05-12 21:59:00,46.2,30.5,29.85,SW,225,6.9,6.9,54,0.00,OVC,,0.00,WeatherDisplay:10.37,2013-05-13 01:59:00,
2013-05-12 22:05:00,46.0,30.7,29.86,WSW,237,6.0,7.0,55,0.00,OVC,,0.00,WeatherDisplay:10.37,2013-05-13 02:05:00,
2013-05-12 22:10:00,46.1,30.4,29.86,WSW,243,8.0,9.0,54,0.00,OVC,,0.00,WeatherDisplay:10.37,2013-05-13 02:10:00,
2013-05-12 22:15:00,46.0,30.7,29.86,WSW,248,10.4,10.4,55,0.00,OVC,,0.00,WeatherDisplay:10.37,2013-05-13 02:15:00,
2013-05-12 22:20:00,46.2,30.5,29.86,West,270,11.5,11.5,54,0.00,OVC,,0.00,WeatherDisplay:10.37,2013-05-13 02:20:00,
2013-05-12 22:25:00,46.2,30.5,29.87,WSW,248,6.9,6.9,54,0.00,OVC,,0.00,WeatherDisplay:10.37,2013-05-13 02:25:00,
2013-05-12 22:30:00,46.0,30.7,29.87,WSW,248,9.2,9.2,55,0.00,OVC,,0.00,WeatherDisplay:10.37,2013-05-13 02:30:00,
2013-05-12 22:35:00,46.0,31.2,29.87,WSW,248,6.9,6.9,56,0.00,OVC,,0.00,WeatherDisplay:10.37,2013-05-13 02:35:00,
2013-05-12 22:40:00,46.0,31.2,29.87,SW,225,11.5,11.5,56,0.00,OVC,,0.00,WeatherDisplay:10.37,2013-05-13 02:40:00,
2013-05-12 22:45:00,46.0,30.7,29.87,SW,225,10.9,10.9,55,0.00,OVC,,0.00,WeatherDisplay:10.37,2013-05-13 02:45:00,
2013-05-12 22:50:00,46.0,31.2,29.87,SSW,202,8.1,8.1,56,0.00,OVC,,0.00,WeatherDisplay:10.37,2013-05-13 02:50:00,
2013-05-12 22:55:00,45.9,31.1,29.87,SW,225,10.4,10.4,56,0.00,OVC,,0.00,WeatherDisplay:10.37,2013-05-13 02:55:00,
2013-05-12 23:00:00,45.9,31.1,29.87,WSW,248,8.1,8.1,56,0.00,OVC,,0.00,WeatherDisplay:10.37,2013-05-13 03:00:00,
2013-05-12 23:05:00,45.7,30.9,29.87,SW,225,11.9,11.9,56,0.00,OVC,,0.00,WeatherDisplay:10.37,2013-05-13 03:05:00,
2013-05-12 23:10:00,45.7,30.9,29.87,SSW,202,10.4,10.4,56,0.00,OVC,,0.00,WeatherDisplay:10.37,2013-05-13 03:10:00,
2013-05-12 23:15:00,45.5,30.7,29.87,WSW,248,11.5,11.5,56,0.00,OVC,,0.00,WeatherDisplay:10.37,2013-05-13 03:15:00,
2013-05-12 23:20:00,45.5,31.1,29.87,WSW,248,10.4,10.4,57,0.00,OVC,,0.00,WeatherDisplay:10.37,2013-05-13 03:20:00,
2013-05-12 23:25:00,45.3,31.0,29.87,WSW,248,10.4,10.4,57,0.00,OVC,,0.00,WeatherDisplay:10.37,2013-05-13 03:25:00,
2013-05-12 23:30:00,45.5,30.7,29.87,WSW,248,6.9,6.9,56,0.00,OVC,,0.00,WeatherDisplay:10.37,2013-05-13 03:30:00,
2013-05-12 23:35:00,45.0,31.1,29.87,WSW,248,5.8,5.8,58,0.00,OVC,,0.00,WeatherDisplay:10.37,2013-05-13 03:35:00,
2013-05-12 23:40:00,45.0,31.1,29.87,WSW,248,5.8,5.8,58,0.00,OVC,,0.00,WeatherDisplay:10.37,2013-05-13 03:40:00,
2013-05-12 23:45:00,44.8,31.3,29.87,WSW,248,5.8,5.8,59,0.00,OVC,,0.00,WeatherDisplay:10.37,2013-05-13 03:45:00,
2013-05-12 23:50:00,44.8,31.3,29.87,WSW,248,3.5,3.5,59,0.00,OVC,,0.00,WeatherDisplay:10.37,2013-05-13 03:50:00,
2013-05-12 23:55:00,44.2,31.2,29.87,WSW,248,5.8,5.8,60,0.00,OVC,,0.00,WeatherDisplay:10.37,2013-05-13 03:55:00,